Time;durP1;ratioP1;P1;durP2;ratioP2;P2;SDS_P1;SDS_P2;PMS_P1;PMS_P2;Temp;Humidity;BMP_temperature;BMP_pressure;BME280_temperature;BME280_humidity;BME280_pressure;Samples;Min_cycle;Max_cycle;Signal;HPM_P1;HPM_P2
2021/08/23 00:00:25;;;;;;;8.20;6.70;;;;;;;19.16;72.44;98383.23;112752;1205;23121;-87
2021/08/23 00:03:00;;;;;;;9.80;6.70;;;;;;;19.15;72.48;98376.12;112670;1205;25219;-87
2021/08/23 00:05:27;;;;;;;11.00;6.90;;;;;;;19.14;72.46;98366.47;112662;1206;24150;-86
2021/08/23 00:07:54;;;;;;;8.30;7.20;;;;;;;19.14;72.84;98365.36;112953;1205;22449;-87
2021/08/23 00:10:21;;;;;;;10.10;7.20;;;;;;;19.13;72.90;98362.39;112514;1206;22708;-87
2021/08/23 00:12:49;;;;;;;11.30;6.70;;;;;;;19.12;72.84;98361.86;112864;1208;22718;-87
2021/08/23 00:15:16;;;;;;;10.20;6.90;;;;;;;19.11;73.08;98361.39;112729;1205;22502;-86
2021/08/23 00:17:57;;;;;;;9.20;6.30;;;;;;;19.11;73.29;98359.08;112650;1206;25228;-86
2021/08/23 00:20:45;;;;;;;8.40;7.10;;;;;;;19.11;72.99;98350.35;112569;1206;22523;-87
2021/08/23 00:23:16;;;;;;;10.80;7.00;;;;;;;19.11;73.07;98351.95;112756;1213;23783;-87
2021/08/23 00:25:43;;;;;;;8.90;6.90;;;;;;;19.10;73.40;98346.11;112819;1206;22477;-87
2021/08/23 00:28:12;;;;;;;8.40;7.50;;;;;;;19.11;73.37;98351.55;112712;1206;22478;-87
2021/08/23 00:30:39;;;;;;;8.30;7.00;;;;;;;19.12;73.32;98356.63;112651;1206;23419;-86
2021/08/23 00:33:06;;;;;;;12.00;6.50;;;;;;;19.12;73.26;98350.50;112623;1206;23780;-86
2021/08/23 00:35:34;;;;;;;9.20;6.40;;;;;;;19.13;73.44;98351.58;112596;1206;22865;-87
2021/08/23 00:38:03;;;;;;;7.60;6.30;;;;;;;19.13;73.68;98357.38;112674;1205;25283;-87
2021/08/23 00:40:44;;;;;;;10.00;6.70;;;;;;;19.14;73.63;98353.61;112521;1206;22485;-87
2021/08/23 00:43:11;;;;;;;10.10;6.80;;;;;;;19.16;73.53;98350.88;112499;1206;22466;-90
2021/08/23 00:45:40;;;;;;;9.60;6.90;;;;;;;19.16;73.46;98351.92;112873;1206;22463;-88
2021/08/23 00:48:08;;;;;;;7.70;5.90;;;;;;;19.18;73.43;98356.25;112807;1206;22468;-87
2021/08/23 00:50:35;;;;;;;8.90;6.70;;;;;;;19.18;73.47;98358.41;112687;1206;22482;-87
2021/08/23 00:53:18;;;;;;;9.00;7.20;;;;;;;19.19;73.34;98359.32;112667;1206;22495;-88
2021/08/23 00:55:45;;;;;;;8.00;6.90;;;;;;;19.20;73.42;98362.68;112772;1204;25126;-87
2021/08/23 00:58:12;;;;;;;7.60;6.70;;;;;;;19.20;73.61;98359.46;112717;1206;22435;-87
2021/08/23 01:01:00;;;;;;;8.90;7.30;;;;;;;19.18;73.70;98363.86;112767;1205;24128;-88
2021/08/23 01:03:37;;;;;;;7.50;6.60;;;;;;;19.16;73.76;98366.94;112805;1212;22508;-87
2021/08/23 01:06:08;;;;;;;9.70;7.50;;;;;;;19.15;73.97;98371.36;112732;1206;24057;-88
2021/08/23 01:08:40;;;;;;;8.70;6.80;;;;;;;19.14;74.03;98372.82;112520;1206;22478;-88
2021/08/23 01:11:12;;;;;;;8.30;7.50;;;;;;;19.12;74.19;98372.31;112443;1206;22451;-88
2021/08/23 01:13:45;;;;;;;8.40;7.40;;;;;;;19.08;74.40;98369.66;112479;1205;23780;-88
2021/08/23 01:16:17;;;;;;;9.30;6.30;;;;;;;19.07;74.61;98369.73;112500;1206;22751;-88
2021/08/23 01:18:45;;;;;;;7.70;6.70;;;;;;;19.08;74.91;98371.94;112591;1206;22484;-88
2021/08/23 01:21:22;;;;;;;8.10;7.00;;;;;;;19.10;74.84;98369.46;112628;1205;22491;-87
2021/08/23 01:23:52;;;;;;;11.50;7.50;;;;;;;19.09;74.95;98367.06;112542;1199;22475;-87
2021/08/23 01:26:25;;;;;;;9.00;7.50;;;;;;;19.09;75.31;98367.52;112617;1206;22989;-88
2021/08/23 01:29:10;;;;;;;9.50;7.80;;;;;;;19.10;75.31;98365.89;112459;1205;24110;-87
2021/08/23 01:31:56;;;;;;;7.70;7.00;;;;;;;19.08;75.50;98371.82;112717;1206;22461;-86
2021/08/23 01:34:25;;;;;;;10.50;7.90;;;;;;;19.09;75.72;98376.23;112510;1205;22496;-82
2021/08/23 01:36:52;;;;;;;;;;;;;;;19.10;75.95;98379.30;112415;1206;24035;-79
2021/08/23 01:39:21;;;;;;;10.40;9.10;;;;;;;19.10;76.19;98382.77;112347;1206;25195;-79
2021/08/23 01:41:47;;;;;;;;;;;;;;;19.12;76.26;98382.96;112372;1208;25425;-79
2021/08/23 01:44:14;;;;;;;11.40;7.70;;;;;;;19.11;76.43;98375.58;112399;1205;22614;-79
2021/08/23 01:46:42;;;;;;;8.70;7.80;;;;;;;19.09;76.59;98369.61;112592;1205;23475;-79
2021/08/23 01:49:10;;;;;;;10.20;8.00;;;;;;;19.08;76.85;98369.11;112337;1199;22447;-79
2021/08/23 01:51:37;;;;;;;11.30;8.60;;;;;;;19.09;77.05;98364.78;112516;1206;25269;-79
2021/08/23 01:54:04;;;;;;;10.10;9.00;;;;;;;19.09;77.03;98357.50;112648;1205;24140;-80
2021/08/23 01:56:33;;;;;;;10.10;9.10;;;;;;;19.05;77.38;98356.32;112350;1200;22451;-80
2021/08/23 01:59:01;;;;;;;12.80;9.20;;;;;;;18.99;77.47;98347.04;112589;1206;22472;-80
2021/08/23 02:01:31;;;;;;;10.90;8.90;;;;;;;18.92;77.82;98339.98;112458;1205;25399;-80
2021/08/23 02:03:58;;;;;;;13.40;10.10;;;;;;;18.84;78.34;98335.70;112458;1206;22458;-79
2021/08/23 02:06:25;;;;;;;10.10;8.90;;;;;;;18.75;78.63;98328.65;112495;1206;22530;-80
2021/08/23 02:08:53;;;;;;;13.60;9.50;;;;;;;18.65;78.99;98324.90;112507;1204;24313;-80
2021/08/23 02:11:25;;;;;;;11.10;9.00;;;;;;;18.59;79.32;98321.36;112629;1206;22481;-80
2021/08/23 02:13:54;;;;;;;10.90;9.00;;;;;;;18.56;79.76;98320.80;112728;1206;25176;-80
2021/08/23 02:16:39;;;;;;;12.60;9.50;;;;;;;18.58;79.94;98310.96;112514;1209;22560;-80
2021/08/23 02:19:07;;;;;;;10.60;9.50;;;;;;;18.57;80.24;98311.14;112431;1206;22532;-80
2021/08/23 02:21:54;;;;;;;11.40;9.60;;;;;;;18.55;80.26;98308.73;112568;1205;22461;-81
2021/08/23 02:24:35;;;;;;;10.50;8.70;;;;;;;18.50;80.29;98304.58;112459;1209;25040;-81
2021/08/23 02:27:03;;;;;;;11.20;9.30;;;;;;;18.46;80.81;98301.04;112395;1206;24230;-81
2021/08/23 02:29:30;;;;;;;12.30;8.90;;;;;;;18.45;80.90;98298.88;112565;1206;22577;-81
2021/08/23 02:31:57;;;;;;;11.10;9.50;;;;;;;18.44;81.04;98297.90;112460;1206;22449;-81
2021/08/23 02:34:24;;;;;;;11.90;10.10;;;;;;;18.46;81.30;98300.79;112517;1208;24899;-81
2021/08/23 02:37:04;;;;;;;11.40;10.20;;;;;;;18.49;81.46;98301.73;112378;1206;22472;-81
2021/08/23 02:39:45;;;;;;;11.80;9.70;;;;;;;18.53;81.32;98299.67;112502;1206;22460;-81
2021/08/23 02:42:26;;;;;;;10.80;9.70;;;;;;;18.56;81.34;98301.78;112518;1206;24147;-81
2021/08/23 02:44:53;;;;;;;13.20;10.60;;;;;;;18.57;81.33;98304.23;112419;1206;22470;-80
2021/08/23 02:47:20;;;;;;;11.50;9.70;;;;;;;18.61;81.47;98301.30;112574;1205;25144;-80
2021/08/23 02:49:47;;;;;;;11.60;10.40;;;;;;;18.65;81.36;98300.58;112506;1205;22512;-81
2021/08/23 02:52:14;;;;;;;11.30;10.10;;;;;;;18.66;81.25;98288.87;112597;1206;24097;-81
2021/08/23 02:54:41;;;;;;;11.10;9.70;;;;;;;18.68;81.27;98289.05;112485;1207;23014;-81
2021/08/23 02:57:22;;;;;;;12.00;9.60;;;;;;;18.69;81.24;98286.45;112498;1206;24048;-81
2021/08/23 03:00:05;;;;;;;12.60;11.30;;;;;;;18.68;81.41;98282.59;112520;1206;24285;-81
2021/08/23 03:02:32;;;;;;;14.60;12.00;;;;;;;18.69;81.55;98285.33;112415;1206;24194;-81
2021/08/23 03:04:59;;;;;;;13.10;10.70;;;;;;;18.69;81.46;98283.02;112447;1206;23676;-81
2021/08/23 03:07:27;;;;;;;13.90;11.70;;;;;;;18.67;81.32;98282.84;112579;1206;24152;-81
2021/08/23 03:09:54;;;;;;;12.50;10.70;;;;;;;18.66;81.62;98285.52;112731;1205;22442;-81
2021/08/23 03:12:23;;;;;;;11.80;10.10;;;;;;;18.66;81.61;98286.66;112698;1205;23769;-81
2021/08/23 03:14:50;;;;;;;13.60;10.60;;;;;;;18.62;81.48;98281.91;112691;1204;24185;-81
2021/08/23 03:17:17;;;;;;;12.50;10.90;;;;;;;18.58;81.35;98281.44;112782;1206;24088;-81
2021/08/23 03:19:58;;;;;;;12.50;10.50;;;;;;;18.56;81.49;98280.76;112916;1206;22461;-81
2021/08/23 03:22:25;;;;;;;18.30;11.00;;;;;;;18.55;81.66;98282.66;113045;1205;25087;-81
2021/08/23 03:24:51;;;;;;;10.70;9.60;;;;;;;18.54;81.93;98282.71;112913;1205;22463;-81
2021/08/23 03:27:32;;;;;;;11.30;10.10;;;;;;;18.57;81.92;98285.81;112685;1206;22465;-81
2021/08/23 03:29:59;;;;;;;11.10;9.80;;;;;;;18.57;81.69;98288.69;112771;1206;22571;-80
2021/08/23 03:32:26;;;;;;;11.30;9.40;;;;;;;18.49;81.47;98290.42;112598;1206;22467;-79
2021/08/23 03:34:53;;;;;;;11.60;10.40;;;;;;;18.35;81.51;98294.55;112777;1206;22493;-79
2021/08/23 03:37:20;;;;;;;12.60;9.80;;;;;;;18.26;82.03;98300.66;112578;1206;22464;-79
2021/08/23 03:40:01;;;;;;;10.70;9.40;;;;;;;18.22;82.47;98297.36;112445;1212;22632;-79
2021/08/23 03:42:28;;;;;;;9.90;8.90;;;;;;;18.19;82.62;98295.41;112740;1206;22462;-79
2021/08/23 03:44:54;;;;;;;14.20;9.10;;;;;;;18.18;82.82;98297.30;112687;1206;24200;-79
2021/08/23 03:47:35;;;;;;;15.20;10.20;;;;;;;18.21;82.98;98293.84;112786;1206;25125;-79
2021/08/23 03:50:03;;;;;;;11.40;10.20;;;;;;;18.23;82.70;98295.52;112763;1206;22522;-79
2021/08/23 03:52:30;;;;;;;12.70;11.50;;;;;;;18.21;82.63;98288.94;112850;1205;22752;-80
2021/08/23 03:55:12;;;;;;;12.80;11.40;;;;;;;18.16;82.76;98293.95;112905;1205;25063;-80
2021/08/23 03:57:54;;;;;;;12.50;11.20;;;;;;;18.13;82.90;98288.17;112599;1211;25069;-80
2021/08/23 04:00:34;;;;;;;14.10;11.40;;;;;;;18.14;83.07;98288.27;112875;1205;23036;-80
2021/08/23 04:03:15;;;;;;;14.00;10.80;;;;;;;18.20;83.26;98296.45;113005;1206;22460;-80
2021/08/23 04:05:43;;;;;;;16.70;11.70;;;;;;;18.27;83.42;98293.36;112633;1206;22450;-80
2021/08/23 04:08:10;;;;;;;13.60;11.80;;;;;;;18.31;83.14;98290.37;112860;1213;22444;-80
2021/08/23 04:10:37;;;;;;;15.30;12.60;;;;;;;18.36;83.21;98287.80;112638;1205;22463;-80
2021/08/23 04:13:03;;;;;;;14.50;12.30;;;;;;;18.40;83.21;98286.73;112781;1206;22470;-80
2021/08/23 04:15:30;;;;;;;14.30;11.40;;;;;;;18.44;83.28;98289.23;112673;1205;25199;-80
2021/08/23 04:17:59;;;;;;;13.20;11.80;;;;;;;18.49;83.06;98290.42;112674;1206;22470;-80
2021/08/23 04:20:26;;;;;;;16.50;12.20;;;;;;;18.51;82.86;98291.16;113005;1206;24351;-81
2021/08/23 04:22:53;;;;;;;16.00;13.10;;;;;;;18.54;82.94;98290.56;112672;1206;22488;-80
2021/08/23 04:25:33;;;;;;;15.00;12.60;;;;;;;18.56;82.96;98294.98;112926;1206;22467;-80
2021/08/23 04:28:00;;;;;;;14.60;12.30;;;;;;;18.61;83.16;98293.96;112610;1205;24091;-80
2021/08/23 04:30:41;;;;;;;13.60;11.80;;;;;;;18.63;82.92;98296.25;112645;1206;22473;-81
2021/08/23 04:33:08;;;;;;;12.90;11.40;;;;;;;18.61;82.75;98298.32;112830;1204;22450;-80
2021/08/23 04:35:35;;;;;;;15.40;11.00;;;;;;;18.58;82.62;98299.48;112947;1205;24192;-80
2021/08/23 04:38:01;;;;;;;13.60;11.50;;;;;;;18.54;82.56;98306.28;112917;1204;25275;-80
2021/08/23 04:40:42;;;;;;;12.90;10.70;;;;;;;18.56;82.91;98308.56;112711;1204;22509;-80
2021/08/23 04:43:09;;;;;;;12.10;10.50;;;;;;;18.57;83.17;98312.83;112925;1204;22432;-79
2021/08/23 04:45:36;;;;;;;12.90;11.00;;;;;;;18.63;83.25;98316.22;112785;1205;22723;-79
2021/08/23 04:48:03;;;;;;;15.50;11.50;;;;;;;18.68;83.08;98330.00;112572;1198;24060;-78
2021/08/23 04:50:44;;;;;;;12.60;11.20;;;;;;;18.70;83.02;98342.47;112509;1205;24213;-78
2021/08/23 04:53:25;;;;;;;12.70;11.40;;;;;;;18.70;82.78;98339.55;113161;1204;22531;-78
2021/08/23 04:55:52;;;;;;;15.90;11.00;;;;;;;18.69;82.72;98341.95;112564;1206;22986;-78
2021/08/23 04:58:19;;;;;;;11.50;10.40;;;;;;;18.66;82.70;98350.16;113026;1206;22511;-78
2021/08/23 05:00:46;;;;;;;12.80;11.20;;;;;;;18.65;82.92;98358.23;112638;1206;22565;-78
2021/08/23 05:03:13;;;;;;;13.80;12.20;;;;;;;18.64;82.95;98364.20;112702;1205;22579;-78
2021/08/23 05:05:41;;;;;;;13.40;12.00;;;;;;;18.65;83.02;98357.80;112417;1207;22572;-78
2021/08/23 05:08:08;;;;;;;13.50;12.10;;;;;;;18.64;83.06;98356.73;112544;1206;22436;-78
2021/08/23 05:10:49;;;;;;;16.10;11.80;;;;;;;18.64;83.01;98364.14;112465;1207;22777;-78
2021/08/23 05:13:16;;;;;;;16.30;12.80;;;;;;;18.64;83.15;98360.45;112631;1205;22464;-78
2021/08/23 05:15:43;;;;;;;13.30;11.30;;;;;;;18.66;83.25;98361.52;112472;1206;23155;-78
2021/08/23 05:18:24;;;;;;;14.70;11.70;;;;;;;18.68;83.12;98357.08;112598;1206;22464;-78
2021/08/23 05:20:51;;;;;;;15.40;12.60;;;;;;;18.67;83.23;98369.39;112789;1198;24527;-77
2021/08/23 05:23:18;;;;;;;15.40;12.20;;;;;;;18.66;83.44;98369.58;112564;1205;22747;-77
2021/08/23 05:25:45;;;;;;;15.00;12.40;;;;;;;18.66;83.53;98374.21;112455;1206;22452;-78
2021/08/23 05:28:12;;;;;;;14.00;11.40;;;;;;;18.65;83.57;98380.91;113114;1205;25137;-77
2021/08/23 05:30:38;;;;;;;13.00;11.70;;;;;;;18.67;83.79;98388.33;112624;1204;22471;-77
2021/08/23 05:33:05;;;;;;;15.70;11.50;;;;;;;18.70;83.95;98393.18;112871;1205;25043;-77
2021/08/23 05:35:46;;;;;;;18.30;13.80;;;;;;;18.69;83.77;98391.25;112944;1205;23443;-77
2021/08/23 05:38:14;;;;;;;17.50;13.00;;;;;;;18.65;83.98;98392.42;112512;1205;22480;-77
2021/08/23 05:40:40;;;;;;;19.00;13.10;;;;;;;18.67;84.10;98395.98;112589;1206;22460;-77
2021/08/23 05:43:07;;;;;;;14.20;12.00;;;;;;;18.68;84.20;98399.00;112773;1198;22468;-77
2021/08/23 05:45:34;;;;;;;14.30;12.00;;;;;;;18.71;84.27;98400.51;112806;1206;24058;-77
2021/08/23 05:48:01;;;;;;;14.40;11.10;;;;;;;18.73;84.21;98402.02;112881;1205;22736;-77
2021/08/23 05:50:28;;;;;;;15.00;12.20;;;;;;;18.74;84.21;98401.39;112545;1212;25178;-77
2021/08/23 05:53:09;;;;;;;12.10;10.90;;;;;;;18.70;84.13;98398.53;112743;1206;22446;-77
2021/08/23 05:55:36;;;;;;;12.10;10.60;;;;;;;18.65;84.31;98406.73;112580;1206;24038;-77
2021/08/23 05:58:03;;;;;;;12.70;9.90;;;;;;;18.61;84.44;98406.66;112635;1204;26287;-77
2021/08/23 06:00:30;;;;;;;12.40;9.30;;;;;;;18.58;84.59;98407.14;112779;1204;22447;-77
2021/08/23 06:03:11;;;;;;;10.80;8.70;;;;;;;18.55;84.58;98409.39;112575;1205;25077;-78
2021/08/23 06:05:40;;;;;;;11.10;8.50;;;;;;;18.52;84.70;98408.89;113323;1206;22454;-78
2021/08/23 06:08:09;;;;;;;8.50;7.10;;;;;;;18.48;84.90;98415.14;113306;1212;24121;-77
2021/08/23 06:10:36;;;;;;;8.40;6.70;;;;;;;18.40;85.03;98418.35;112867;1206;25148;-77
2021/08/23 06:13:04;;;;;;;9.40;6.90;;;;;;;18.30;85.22;98418.53;112835;1207;23389;-77
2021/08/23 06:15:31;;;;;;;8.10;7.30;;;;;;;18.22;85.39;98418.69;112631;1206;22452;-76
2021/08/23 06:18:14;;;;;;;7.80;6.40;;;;;;;18.18;85.56;98423.86;112557;1206;24073;-77
2021/08/23 06:20:46;;;;;;;9.40;7.20;;;;;;;18.17;85.71;98419.41;112807;1206;22513;-76
2021/08/23 06:23:15;;;;;;;7.60;6.80;;;;;;;18.15;85.84;98417.23;112579;1206;25143;-77
2021/08/23 06:25:42;;;;;;;9.40;7.00;;;;;;;18.14;86.02;98418.86;112921;1204;23171;-77
2021/08/23 06:28:11;;;;;;;10.60;7.90;;;;;;;18.13;86.22;98419.41;112517;1206;25074;-77
2021/08/23 06:30:39;;;;;;;9.60;6.90;;;;;;;18.13;86.29;98420.14;112465;1205;24064;-78
2021/08/23 06:33:06;;;;;;;8.80;6.40;;;;;;;18.14;86.28;98417.30;112660;1205;22475;-77
2021/08/23 06:35:34;;;;;;;7.50;6.50;;;;;;;18.14;86.28;98415.05;112631;1206;22641;-77
2021/08/23 06:38:03;;;;;;;6.40;5.70;;;;;;;18.14;86.29;98416.22;112646;1206;22466;-77
2021/08/23 06:40:36;;;;;;;7.10;6.30;;;;;;;18.13;86.39;98417.05;112569;1205;24245;-77
2021/08/23 06:43:19;;;;;;;7.60;5.90;;;;;;;18.12;86.39;98416.51;112393;1206;22464;-77
2021/08/23 06:46:06;;;;;;;6.00;5.00;;;;;;;18.10;86.57;98416.31;112649;1207;25030;-77
2021/08/23 06:48:49;;;;;;;6.80;5.00;;;;;;;18.07;86.60;98419.11;113027;1206;25080;-77
2021/08/23 06:51:20;;;;;;;7.60;5.20;;;;;;;18.06;86.68;98420.77;112624;1205;23691;-77
2021/08/23 06:53:51;;;;;;;4.90;4.40;;;;;;;18.05;86.54;98421.61;112581;1212;24051;-77
2021/08/23 06:56:29;;;;;;;6.90;4.00;;;;;;;18.03;86.53;98423.61;112549;1205;22495;-77
2021/08/23 06:59:10;;;;;;;9.30;4.30;;;;;;;17.99;86.36;98420.20;112587;1206;25180;-77
2021/08/23 07:01:38;;;;;;;5.70;3.40;;;;;;;17.99;86.43;98420.48;112752;1207;22453;-77
2021/08/23 07:04:19;;;;;;;5.40;3.60;;;;;;;17.98;86.25;98421.20;112537;1206;25037;-77
2021/08/23 07:06:46;;;;;;;4.60;3.40;;;;;;;17.95;86.12;98420.63;112739;1200;22456;-77
2021/08/23 07:09:14;;;;;;;4.40;3.30;;;;;;;17.93;86.16;98418.45;112384;1206;24051;-76
2021/08/23 07:11:41;;;;;;;5.70;3.80;;;;;;;17.91;86.11;98414.84;112763;1205;24894;-76
2021/08/23 07:14:08;;;;;;;5.80;4.20;;;;;;;17.89;86.17;98413.99;112423;1206;23657;-76
2021/08/23 07:16:35;;;;;;;4.50;3.60;;;;;;;17.89;86.37;98408.27;112554;1208;22843;-77
2021/08/23 07:19:18;;;;;;;5.00;4.00;;;;;;;17.88;86.22;98409.92;112481;1206;25736;-77
2021/08/23 07:21:45;;;;;;;4.10;3.20;;;;;;;17.86;86.18;98403.44;112563;1207;22742;-76
2021/08/23 07:24:12;;;;;;;4.60;3.30;;;;;;;17.85;86.01;98404.27;112663;1206;22788;-76
2021/08/23 07:26:39;;;;;;;5.00;3.80;;;;;;;17.84;85.98;98405.80;112507;1208;22579;-76
2021/08/23 07:29:20;;;;;;;5.20;3.90;;;;;;;17.83;86.03;98402.07;112480;1204;22568;-76
2021/08/23 07:31:47;;;;;;;4.70;4.00;;;;;;;17.85;86.23;98403.77;112469;1206;24060;-76
2021/08/23 07:34:15;;;;;;;7.70;3.70;;;;;;;17.88;86.27;98402.60;112281;1206;22478;-77
2021/08/23 07:36:42;;;;;;;6.00;3.80;;;;;;;17.90;86.32;98401.14;112471;1205;22443;-76
2021/08/23 07:39:09;;;;;;;5.80;3.80;;;;;;;17.94;86.20;98399.98;112711;1212;22497;-77
2021/08/23 07:41:36;;;;;;;4.50;3.40;;;;;;;18.00;86.37;98397.54;112477;1199;25217;-77
2021/08/23 07:44:03;;;;;;;5.00;3.90;;;;;;;18.08;86.33;98402.07;112947;1208;24844;-77
2021/08/23 07:46:30;;;;;;;4.40;3.60;;;;;;;18.17;86.56;98404.54;113624;1209;23227;-76
2021/08/23 07:48:57;;;;;;;7.30;4.10;;;;;;;18.23;86.15;98404.52;113033;1206;23188;-76
2021/08/23 07:51:39;;;;;;;5.00;4.00;;;;;;;18.27;85.98;98403.20;112651;1208;22556;-76
2021/08/23 07:54:20;;;;;;;4.90;3.70;;;;;;;18.28;86.03;98405.61;113074;1206;25671;-74
2021/08/23 07:56:46;;;;;;;4.10;3.70;;;;;;;18.29;85.80;98405.47;112722;1208;25122;-75
2021/08/23 07:59:13;;;;;;;6.40;3.70;;;;;;;18.30;85.97;98405.52;112920;1205;22445;-73
2021/08/23 08:01:40;;;;;;;4.40;3.80;;;;;;;18.30;85.97;98408.27;112773;1208;22523;-77
2021/08/23 08:04:07;;;;;;;8.00;3.70;;;;;;;18.32;86.13;98406.33;112507;1208;22874;-77
2021/08/23 08:06:34;;;;;;;5.30;3.60;;;;;;;18.36;86.14;98408.80;112389;1208;22466;-77
2021/08/23 08:09:02;;;;;;;5.70;4.00;;;;;;;18.37;85.91;98407.73;112822;1203;25165;-77
2021/08/23 08:11:29;;;;;;;5.40;4.00;;;;;;;18.39;85.87;98408.14;112302;1212;22501;-77
2021/08/23 08:13:56;;;;;;;6.40;4.00;;;;;;;18.40;85.90;98409.17;112495;1210;22473;-76
2021/08/23 08:16:23;;;;;;;5.50;3.80;;;;;;;18.44;85.98;98406.91;112571;1207;25554;-77
2021/08/23 08:19:04;;;;;;;5.60;3.70;;;;;;;18.50;85.99;98410.58;112404;1206;24123;-77
2021/08/23 08:21:45;;;;;;;4.70;3.70;;;;;;;18.60;86.05;98413.53;112233;1212;23745;-77
2021/08/23 08:24:12;;;;;;;4.10;3.70;;;;;;;18.65;85.89;98415.98;112438;1212;23917;-76
2021/08/23 08:26:53;;;;;;;6.20;3.40;;;;;;;18.67;85.75;98417.27;112391;1208;23608;-77
2021/08/23 08:29:20;;;;;;;7.50;3.90;;;;;;;18.69;85.78;98415.52;112487;1206;25133;-76
2021/08/23 08:31:47;;;;;;;4.00;3.60;;;;;;;18.69;85.58;98417.53;112502;1213;22698;-76
2021/08/23 08:34:15;;;;;;;4.30;3.80;;;;;;;18.65;85.42;98419.06;112498;1209;22475;-77
2021/08/23 08:36:55;;;;;;;4.80;3.70;;;;;;;18.59;85.32;98414.85;112581;1204;22454;-76
2021/08/23 08:39:22;;;;;;;4.40;3.90;;;;;;;18.57;85.59;98416.64;112422;1210;22855;-76
2021/08/23 08:41:49;;;;;;;5.90;4.40;;;;;;;18.55;85.47;98419.55;112404;1207;24335;-76
2021/08/23 08:44:16;;;;;;;5.00;3.50;;;;;;;18.54;85.61;98422.11;112708;1207;22484;-76
2021/08/23 08:46:45;;;;;;;6.40;4.00;;;;;;;18.52;85.46;98421.69;112520;1209;25032;-77
2021/08/23 08:49:16;;;;;;;5.80;4.00;;;;;;;18.52;85.55;98418.66;112559;1206;22464;-77
2021/08/23 08:51:45;;;;;;;4.00;3.60;;;;;;;18.53;85.56;98419.97;113081;1209;22455;-77
2021/08/23 08:54:13;;;;;;;4.80;3.60;;;;;;;18.56;85.43;98421.24;112527;1206;24097;-77
2021/08/23 08:56:40;;;;;;;5.20;3.80;;;;;;;18.59;85.61;98418.50;112839;1209;22523;-77
2021/08/23 08:59:07;;;;;;;3.90;3.40;;;;;;;18.65;85.67;98419.57;112749;1205;25121;-77
2021/08/23 09:01:48;;;;;;;3.70;3.30;;;;;;;18.69;85.22;98417.80;112503;1209;25078;-76
2021/08/23 09:04:27;;;;;;;4.50;3.80;;;;;;;18.69;84.83;98421.22;112864;1206;22457;-76
2021/08/23 09:06:57;;;;;;;5.90;4.10;;;;;;;18.70;84.77;98423.24;112813;1209;24051;-77
2021/08/23 09:09:26;;;;;;;5.00;4.20;;;;;;;18.75;84.92;98422.83;112624;1206;22481;-77
2021/08/23 09:12:11;;;;;;;5.70;4.00;;;;;;;18.81;85.02;98421.61;112771;1207;23006;-77
2021/08/23 09:14:55;;;;;;;5.30;4.30;;;;;;;18.91;85.12;98425.04;112328;1213;22463;-76
2021/08/23 09:17:35;;;;;;;5.50;3.60;;;;;;;19.00;84.89;98428.00;113531;1207;23479;-76
2021/08/23 09:20:07;;;;;;;4.80;3.90;;;;;;;19.04;84.53;98425.80;114075;1206;22480;-76
2021/08/23 09:22:34;;;;;;;5.10;4.10;;;;;;;19.09;84.42;98425.69;113746;1206;24119;-77
2021/08/23 09:25:12;;;;;;;5.30;3.60;;;;;;;19.09;84.22;98426.45;113886;1203;23058;-77
2021/08/23 09:27:39;;;;;;;4.60;3.30;;;;;;;19.15;84.10;98430.34;113927;1205;22518;-77
2021/08/23 09:30:11;;;;;;;5.30;3.70;;;;;;;19.21;83.83;98424.50;113867;1204;22536;-77
2021/08/23 09:32:51;;;;;;;5.20;3.70;;;;;;;19.22;83.72;98428.61;113878;1205;22478;-77
2021/08/23 09:35:39;;;;;;;4.40;4.00;;;;;;;19.23;83.48;98425.29;113903;1206;22552;-77
2021/08/23 09:38:11;;;;;;;7.50;3.90;;;;;;;19.25;83.72;98430.16;114078;1206;23129;-77
2021/08/23 09:40:38;;;;;;;4.80;4.30;;;;;;;19.29;83.78;98424.90;113738;1206;23036;-77
2021/08/23 09:43:24;;;;;;;4.50;3.50;;;;;;;19.29;83.44;98416.08;113852;1206;22515;-77
2021/08/23 09:46:11;;;;;;;4.50;3.30;;;;;;;19.31;83.48;98417.30;114259;1205;23130;-76
2021/08/23 09:48:55;;;;;;;6.60;4.10;;;;;;;19.35;83.28;98418.79;113980;1204;22513;-76
2021/08/23 09:51:36;;;;;;;4.80;3.70;;;;;;;19.39;82.94;98419.48;112559;1209;24048;-76
2021/08/23 09:54:09;;;;;;;4.30;3.70;;;;;;;19.41;82.74;98418.39;112650;1209;24111;-77
2021/08/23 09:56:56;;;;;;;4.40;4.00;;;;;;;19.45;82.59;98415.93;112615;1209;22432;-77
2021/08/23 09:59:24;;;;;;;4.90;3.80;;;;;;;19.57;82.99;98415.77;112552;1205;23698;-77
2021/08/23 10:02:09;;;;;;;5.40;4.10;;;;;;;19.71;83.51;98415.85;112404;1213;22553;-77
2021/08/23 10:04:37;;;;;;;4.80;3.80;;;;;;;19.82;83.39;98416.52;112624;1209;22493;-77
2021/08/23 10:07:19;;;;;;;5.80;4.30;;;;;;;19.90;83.14;98414.39;112429;1209;25268;-77
2021/08/23 10:10:01;;;;;;;4.90;4.30;;;;;;;19.96;82.92;98414.23;112502;1209;22471;-78
2021/08/23 10:12:42;;;;;;;5.70;4.50;;;;;;;19.97;82.19;98418.30;112590;1208;22470;-78
2021/08/23 10:15:10;;;;;;;4.50;4.00;;;;;;;19.95;81.91;98416.84;112318;1206;25472;-78
2021/08/23 10:17:38;;;;;;;7.90;4.20;;;;;;;19.94;81.78;98417.08;112410;1208;22498;-78
2021/08/23 10:20:19;;;;;;;8.00;4.50;;;;;;;19.88;81.50;98415.20;112804;1205;25396;-78
2021/08/23 10:22:46;;;;;;;7.20;4.50;;;;;;;19.89;81.58;98419.31;112589;1205;22454;-78
2021/08/23 10:25:17;;;;;;;4.90;4.00;;;;;;;19.90;81.77;98422.90;112501;1212;25093;-78
2021/08/23 10:27:44;;;;;;;6.10;4.40;;;;;;;19.90;81.41;98420.79;112694;1206;22466;-78
2021/08/23 10:30:22;;;;;;;5.20;4.40;;;;;;;19.87;81.09;98419.52;112482;1209;25351;-78
2021/08/23 10:32:49;;;;;;;;;;;;;;;19.83;80.73;98426.78;112864;1205;22481;-78
2021/08/23 10:35:21;;;;;;;5.60;3.90;;;;;;;19.74;80.56;98427.34;112529;1206;22441;-78
2021/08/23 10:38:02;;;;;;;5.30;3.80;;;;;;;19.64;80.60;98432.00;112577;1205;22633;-78
2021/08/23 10:40:35;;;;;;;4.40;3.40;;;;;;;19.53;80.43;98431.98;112594;1206;22957;-78
2021/08/23 10:43:18;;;;;;;5.20;3.20;;;;;;;19.47;80.62;98428.21;112575;1206;22485;-78
2021/08/23 10:45:59;;;;;;;6.30;3.70;;;;;;;19.44;80.71;98426.58;112536;1209;24324;-78
2021/08/23 10:48:26;;;;;;;4.60;3.80;;;;;;;19.44;81.15;98427.39;112467;1213;22470;-79
2021/08/23 10:51:02;;;;;;;4.80;3.50;;;;;;;19.45;80.71;98428.05;112528;1205;22463;-78
2021/08/23 10:53:37;;;;;;;5.50;3.70;;;;;;;19.43;80.74;98430.95;112518;1205;22467;-78
2021/08/23 10:56:21;;;;;;;4.50;3.90;;;;;;;19.44;81.04;98429.34;112307;1210;22484;-78
2021/08/23 10:58:50;;;;;;;5.10;4.20;;;;;;;19.46;81.31;98426.92;112468;1209;22460;-78
2021/08/23 11:01:24;;;;;;;7.10;4.50;;;;;;;19.48;81.30;98429.59;112451;1206;22462;-78
2021/08/23 11:04:05;;;;;;;6.00;4.50;;;;;;;19.45;81.34;98431.18;112332;1206;24098;-78
2021/08/23 11:06:33;;;;;;;5.40;4.20;;;;;;;19.43;81.59;98429.91;112591;1206;25314;-78
2021/08/23 11:09:07;;;;;;;4.50;3.60;;;;;;;19.42;81.36;98428.11;112546;1209;22646;-78
2021/08/23 11:11:48;;;;;;;4.50;3.50;;;;;;;19.40;81.55;98426.36;112346;1211;22461;-78
2021/08/23 11:14:20;;;;;;;5.90;4.20;;;;;;;19.38;81.43;98423.81;112415;1209;22531;-78
2021/08/23 11:17:00;;;;;;;6.40;4.20;;;;;;;19.37;81.82;98424.77;112418;1206;24107;-78
2021/08/23 11:19:28;;;;;;;4.70;4.10;;;;;;;19.39;81.96;98423.52;112688;1209;22676;-78
2021/08/23 11:22:00;;;;;;;5.60;4.00;;;;;;;19.36;81.75;98416.05;112495;1209;24075;-78
2021/08/23 11:24:28;;;;;;;6.70;4.20;;;;;;;19.37;81.86;98414.83;112520;1209;22487;-78
2021/08/23 11:27:01;;;;;;;5.00;4.10;;;;;;;19.37;81.79;98411.58;112347;1207;22939;-78
2021/08/23 11:29:53;;;;;;;6.30;4.80;;;;;;;19.37;82.00;98407.42;112260;1212;22862;-78
2021/08/23 11:32:29;;;;;;;5.80;4.20;;;;;;;19.40;82.11;98405.05;112481;1206;25204;-78
2021/08/23 11:34:58;;;;;;;5.50;4.00;;;;;;;19.44;81.86;98402.09;112494;1209;22530;-78
2021/08/23 11:37:27;;;;;;;5.30;4.40;;;;;;;19.48;81.61;98404.39;112522;1205;22467;-78
2021/08/23 11:40:04;;;;;;;5.00;4.20;;;;;;;19.50;81.37;98403.36;112413;1212;23788;-77